Artesia ASC

2020-09-27 21:30:00

  • imperial
Date Time Air Temperature Relative Humidity Dewpoint Windchill Heat Index Wind Speed Wind Dir. Rain Solar Radiation Soil Temperature
2m 2m 3m 3m 10cm
US/Mountain F % F F F MPH deg in MJ/m^2 F
max avg avg
2020-09-27 16:15:00 97.3 9.7 30.9 97.3 97.3 13.5 17.8 12.6 343.4 333.3 0.00 0.4510000 79.7
2020-09-27 16:20:00 96.7 11.5 34.7 96.7 96.7 11.2 14.6 12.2 330.5 330.6 0.00 0.4350000 79.8
2020-09-27 16:25:00 95.8 11.9 34.8 95.8 95.8 10.5 12.2 9.3 328.4 319.3 0.00 0.4140000 79.8
2020-09-27 16:30:00 97.8 9.1 29.7 97.8 97.8 7.1 13.0 9.8 2.6 339.8 0.00 0.3980000 79.8
2020-09-27 16:35:00 97.9 8.3 27.4 97.9 97.9 7.8 11.2 7.3 334.7 341.3 0.00 0.3830000 79.8
2020-09-27 16:40:00 97.9 9.1 29.8 97.9 97.9 6.5 12.1 7.8 21.8 349.0 0.00 0.3510000 79.9
2020-09-27 16:45:00 97.0 12.0 36.1 97.0 97.0 4.7 14.4 10.0 348.4 332.8 0.00 0.3460000 79.9
2020-09-27 16:50:00 97.8 8.1 26.7 97.8 97.8 9.6 12.1 8.3 332.0 346.3 0.00 0.3290000 79.9
2020-09-27 16:55:00 98.4 9.0 29.9 98.4 98.4 6.5 11.2 7.0 0.7 357.0 0.00 0.3230000 79.9
2020-09-27 17:00:00 98.5 8.7 29.0 98.5 98.5 6.5 8.5 5.6 333.7 2.1 0.00 0.3100000 80.0
2020-09-27 17:05:00 98.3 9.2 30.3 98.3 98.3 4.4 9.6 6.6 345.4 348.6 0.00 0.2940000 80.0
2020-09-27 17:10:00 97.9 9.5 30.8 97.9 97.9 5.3 10.3 7.0 339.7 347.3 0.00 0.2760000 80.0
2020-09-27 17:15:00 98.1 8.2 27.4 98.1 98.1 6.3 11.9 6.5 1.0 7.8 0.00 0.2590000 80.0
2020-09-27 17:20:00 98.3 8.0 27.0 98.3 98.3 5.6 9.7 5.9 344.3 12.5 0.00 0.2410000 80.0
2020-09-27 17:25:00 98.3 8.7 29.1 98.3 98.3 7.4 8.3 6.2 344.2 0.7 0.00 0.2240000 80.0
2020-09-27 17:30:00 97.7 9.2 30.0 97.7 97.7 4.7 12.6 7.9 339.6 346.2 0.00 0.2080000 80.1
2020-09-27 17:35:00 96.7 9.9 31.0 96.7 96.7 6.9 11.9 8.7 323.4 343.4 0.00 0.1900000 80.1
2020-09-27 17:40:00 96.3 10.5 32.0 96.3 96.3 6.0 10.6 8.1 347.5 337.4 0.00 0.1730000 80.1
2020-09-27 17:45:00 96.3 10.2 31.4 96.3 96.3 8.0 11.9 7.7 335.8 338.0 0.00 0.1580000 80.1
2020-09-27 17:50:00 95.7 9.4 28.9 95.7 95.7 7.4 13.0 9.0 330.7 336.5 0.00 0.1420000 80.1
2020-09-27 17:55:00 95.9 9.9 30.4 95.9 95.9 4.2 7.2 5.0 330.4 343.3 0.00 0.1270000 80.1
2020-09-27 18:00:00 95.1 9.8 29.5 95.1 95.1 8.8 8.8 5.6 337.9 339.3 0.00 0.1120000 80.1
2020-09-27 18:05:00 94.6 10.2 30.1 94.6 94.6 8.1 8.5 7.0 327.6 341.6 0.00 0.0990000 80.1
2020-09-27 18:10:00 94.2 10.9 31.4 94.2 94.2 5.8 10.5 6.7 348.2 338.2 0.00 0.0820000 80.1
2020-09-27 18:15:00 94.0 9.5 27.9 94.0 94.0 7.1 7.4 4.9 19.7 353.0 0.00 0.0650000 80.1
2020-09-27 18:20:00 94.2 10.1 29.5 94.2 94.2 4.0 6.3 4.1 346.2 359.4 0.00 0.0500000 80.1
2020-09-27 18:25:00 93.2 10.6 29.9 93.2 93.2 2.1 5.1 3.7 344.3 353.3 0.00 0.0360000 80.1
2020-09-27 18:30:00 92.5 10.9 30.2 92.5 92.5 2.2 4.4 3.1 344.7 357.7 0.00 0.0260000 80.1
2020-09-27 18:35:00 91.4 11.5 30.5 91.4 91.4 1.7 2.4 2.1 7.4 1.7 0.00 0.0170000 80.1
2020-09-27 18:40:00 90.7 12.4 32.0 90.7 90.7 3.3 3.5 2.3 336.2 342.4 0.00 0.0110000 80.1
2020-09-27 18:45:00 89.6 11.7 29.7 89.6 89.6 2.1 5.5 3.2 73.3 349.5 0.00 0.0060000 80.1
2020-09-27 18:50:00 89.6 11.7 29.7 89.6 89.6 1.9 2.8 2.1 348.6 19.8 0.00 0.0030000 80.1
2020-09-27 18:55:00 89.1 12.4 30.7 89.1 89.1 1.5 3.1 2.1 348.6 358.0 0.00 0.0020000 80.1
2020-09-27 19:00:00 87.2 12.9 30.1 87.2 87.2 3.3 4.0 3.1 304.4 327.7 0.00 0.0010000 80.1
2020-09-27 19:05:00 85.3 13.4 29.7 85.3 85.3 3.3 4.2 3.5 324.4 317.2 0.00 0.0000000 80.1
2020-09-27 19:10:00 85.4 12.5 28.0 85.4 85.4 2.8 3.8 2.9 327.3 319.6 0.00 0.0000000 80.1
2020-09-27 19:15:00 86.0 12.4 28.2 86.0 86.0 3.3 3.5 3.2 313.6 325.5 0.00 0.0000000 80.1
2020-09-27 19:20:00 84.4 13.1 28.3 84.4 84.4 2.8 3.1 2.8 320.2 310.6 0.00 0.0000000 80.0
2020-09-27 19:25:00 86.0 11.8 27.2 86.0 86.0 4.0 4.0 3.6 329.9 327.8 0.00 0.0000000 80.0
2020-09-27 19:30:00 85.8 13.1 29.5 85.8 85.8 1.2 3.8 3.1 45.8 336.8 0.00 0.0000000 80.0
2020-09-27 19:35:00 83.0 14.4 29.5 83.0 83.0 1.2 1.7 1.2 73.2 43.7 0.00 0.0000000 79.9
2020-09-27 19:40:00 83.4 13.2 27.9 83.4 83.4 1.3 2.8 1.8 49.1 23.4 0.00 0.0000000 79.9
2020-09-27 19:45:00 83.9 12.8 27.4 83.9 83.9 1.5 2.2 1.6 329.8 356.5 0.00 0.0000000 79.9
2020-09-27 19:50:00 82.6 14.2 29.0 82.6 82.6 1.2 1.9 1.4 311.8 334.2 0.00 0.0000000 79.8
2020-09-27 19:55:00 81.3 14.2 27.9 81.3 81.3 0.0 1.2 0.2 313.3 317.7 0.00 0.0000000 79.8
2020-09-27 20:00:00 80.2 14.5 27.6 80.2 80.2 0.8 1.0 0.4 7.7 19.0 0.00 0.0000000 79.8
2020-09-27 20:05:00 80.0 12.9 24.5 80.0 80.0 1.0 2.1 1.0 306.9 331.4 0.00 0.0000000 79.7
2020-09-27 20:10:00 80.1 14.0 26.6 80.1 80.1 1.7 3.3 2.2 333.8 316.7 0.00 0.0000000 79.7
2020-09-27 20:15:00 81.2 13.2 26.0 81.2 81.2 3.0 4.6 2.5 341.6 341.7 0.00 0.0000000 79.6
2020-09-27 20:20:00 81.3 18.6 34.6 81.3 81.3 9.2 9.2 3.7 57.3 28.3 0.00 0.0000000 79.6
2020-09-27 20:25:00 81.7 22.7 39.9 81.7 81.7 10.8 16.7 9.5 340.8 24.7 0.00 0.0000000 79.5
2020-09-27 20:30:00 81.4 26.6 43.9 81.4 81.4 10.5 14.6 10.5 72.8 72.0 0.00 0.0000000 79.4
2020-09-27 20:35:00 81.0 28.0 44.8 81.0 81.0 9.9 16.5 9.0 106.1 76.3 0.00 0.0000000 79.4
2020-09-27 20:40:00 80.2 30.1 46.1 80.2 80.2 7.6 11.0 7.6 68.0 73.3 0.00 0.0000000 79.4
2020-09-27 20:45:00 79.7 31.3 46.6 79.7 79.7 10.3 12.8 8.4 54.4 81.4 0.00 0.0000000 79.3
2020-09-27 20:50:00 79.4 31.5 46.6 79.4 79.4 7.2 13.7 8.1 77.4 82.2 0.00 0.0000000 79.3
2020-09-27 20:55:00 79.0 31.9 46.5 79.0 79.0 8.1 10.6 7.8 74.0 80.7 0.00 0.0000000 79.2
2020-09-27 21:00:00 78.5 32.6 46.7 78.5 78.5 7.1 9.7 6.6 35.1 80.2 0.00 0.0000000 79.2
2020-09-27 21:05:00 78.3 33.1 46.9 78.3 78.3 5.5 12.4 7.4 33.7 73.5 0.00 0.0000000 79.1
2020-09-27 21:10:00 78.0 33.4 46.9 78.0 78.0 6.9 18.1 7.5 93.4 81.2 0.00 0.0000000 79.0
2020-09-27 21:15:00 77.8 34.1 47.3 77.8 77.8 5.6 10.5 6.2 75.6 75.4 0.00 0.0000000 79.0
2020-09-27 21:20:00 77.3 34.9 47.5 77.3 77.3 3.7 8.8 5.6 107.0 66.6 0.00 0.0000000 79.0
2020-09-27 21:25:00 77.3 35.8 48.1 77.3 77.3 6.7 8.7 5.6 50.1 41.4 0.00 0.0000000 78.9
2020-09-27 21:30:00 77.3 36.3 48.5 77.3 77.3 2.8 6.5 4.1 82.1 39.0 0.00 0.0000000 78.9

Data is courtesy of the NM Climate Center. DO NOT USE IN LEGAL PROCEEDINGS.